Kokkola-Pietarsaari

Airport
ICAO code: 
EFKK
Summary
ICAO Region: 
EUR
Territory: 
Location: 
Kronoby,
Coordinates: 
Aerial View: 
63° 43' 15.569" N, 23° 8' 36.811" E
Airport CFIT: 
Altimeter Temperature Error Correction
Airport GND: 
Aircraft Ground De/Anti Icing
Airport RE: 
Landing on Contaminated Runways
Metar
Observation
EFKK 090120Z AUTO 18006KT 9999 -SHSN BKN028 M12/M14 Q1024
Station
Kruunupyy
Date/Time
2021-12-09 01:20:00
Wind direction
180°
Wind speed
06 kts
Lowest cloud amount
broken clouds
Temperature
-12°C
Dew point
-14°C
Humidity
84%
QNH
1024 hPa
Weather condition
light showers snow

Description

Largely domestic but also international airport serving the cities of Kokkola and Jakobstad in Finland. The airport is located 12 nm south of Kokkola city centre.

Climatology

Subarctic climate (Köppen climate classification Dfc) - long, usually very cold winters, and short, cool to mild summers.

Runways

Designator Length Width Surface Rops
11/29 700 20 ASP Yes/Yes
1/19 2500 60 ASP Yes/Yes
Airport map: 
Aerial View: 

SKYbrary Partners:

Safety knowledge contributed by: